Aeroporto :
LOGIN :

Iscrizione | Disclaimer

   EN    FR    IT 

 










Sommario :    VFR   VFR Marginale   IFR   IFR Intensivo   IFR Molto Intensivo
Visibilità : 
Base nubi : 
>= 8 km
>= 3000ft
5 / 8 km
1000 / 3000 ft
1500m / 5 km
500 / 1000 ft
800 / 1500m
200 / 500 ft
< 800m
< 200 ft
Simboli :   Temporali  Nebbia  Neve Forte  Precipitazioni Forti  Vento > 20 kt
SIGMETs :   Varie  Temporali  Ghiacco  Turbolenza  Onda orograficha  Ceneri Vulcaniche






- Altitudine del aeroporto : 396 ft


LFOZ - Orléans St Denis

ULTIMO METAR :
  • 021100Z AUTO VRB03KT CAVOK 23/09 Q1021

METARs OBSOLETI :
  • 021030Z AUTO 12005KT 060V160 CAVOK 23/09 Q1021
  • 021000Z AUTO VRB03KT CAVOK 22/09 Q1021
  • 020930Z AUTO VRB03KT CAVOK 22/11 Q1021
  • 020900Z AUTO 15004KT 080V200 CAVOK 22/10 Q1021
  • 020830Z AUTO 14006KT 100V160 CAVOK 21/09 Q1021
  • 012130Z AUTO 00000KT CAVOK 11/10 Q1022

TAF N/A



MetMap, La meteo Aeronautica in un colpo d'occhio ! - Copyright ORBIFLY Dicembre 2007 - Disclaimer

ORBIFLY MET'MAP TEAM :

Programmazione e sviluppo : Alexandra Zaïnal
Concezione : Baudouin d'Aumeries
Supporto tecnico e logistico : Manuel Goepfert
Aiuto : Marc-Olivier Méhu
Aiuto per la traduzione : Arnaldo La Scala




FONTI E CREDITI :

   NOAA